sensor_id;sensor_type;location;lat;lon;timestamp;pressure;altitude;pressure_sealevel;temperature;humidity
11936;BME280;6027;48.576;9.180;2023-01-05T00:01:13;97382.16;;;9.87;100.00
11936;BME280;6027;48.576;9.180;2023-01-05T00:03:39;97376.53;;;9.90;100.00
11936;BME280;6027;48.576;9.180;2023-01-05T00:06:07;97366.78;;;9.91;100.00
11936;BME280;6027;48.576;9.180;2023-01-05T00:08:34;97361.66;;;9.89;100.00
11936;BME280;6027;48.576;9.180;2023-01-05T00:11:08;97361.84;;;9.88;100.00
11936;BME280;6027;48.576;9.180;2023-01-05T00:13:52;97361.66;;;9.89;100.00
11936;BME280;6027;48.576;9.180;2023-01-05T00:16:36;97360.69;;;9.90;100.00
11936;BME280;6027;48.576;9.180;2023-01-05T00:19:20;97345.47;;;9.92;100.00
11936;BME280;6027;48.576;9.180;2023-01-05T00:22:13;97350.25;;;9.89;100.00
11936;BME280;6027;48.576;9.180;2023-01-05T00:24:57;97347.94;;;9.86;100.00
11936;BME280;6027;48.576;9.180;2023-01-05T00:27:22;97336.72;;;9.92;100.00
11936;BME280;6027;48.576;9.180;2023-01-05T00:29:48;97327.13;;;9.91;100.00
11936;BME280;6027;48.576;9.180;2023-01-05T00:32:13;97320.50;;;9.87;100.00
11936;BME280;6027;48.576;9.180;2023-01-05T00:34:38;97326.13;;;9.92;100.00
11936;BME280;6027;48.576;9.180;2023-01-05T00:37:04;97321.00;;;9.98;100.00
11936;BME280;6027;48.576;9.180;2023-01-05T00:39:29;97333.56;;;9.96;100.00
11936;BME280;6027;48.576;9.180;2023-01-05T00:41:54;97335.22;;;9.97;100.00
11936;BME280;6027;48.576;9.180;2023-01-05T00:44:20;97330.44;;;9.93;100.00
11936;BME280;6027;48.576;9.180;2023-01-05T00:46:45;97333.72;;;9.95;100.00
11936;BME280;6027;48.576;9.180;2023-01-05T00:49:11;97337.22;;;9.95;100.00
11936;BME280;6027;48.576;9.180;2023-01-05T00:51:36;97331.41;;;9.92;100.00
11936;BME280;6027;48.576;9.180;2023-01-05T00:54:01;97327.78;;;9.93;100.00
11936;BME280;6027;48.576;9.180;2023-01-05T00:56:27;97327.28;;;9.89;100.00
11936;BME280;6027;48.576;9.180;2023-01-05T00:58:52;97327.28;;;9.89;100.00
11936;BME280;6027;48.576;9.180;2023-01-05T01:01:19;97328.13;;;9.90;100.00
11936;BME280;6027;48.576;9.180;2023-01-05T01:03:44;97325.63;;;9.88;100.00
11936;BME280;6027;48.576;9.180;2023-01-05T01:06:10;97319.19;;;9.83;100.00
11936;BME280;6027;48.576;9.180;2023-01-05T01:08:35;97311.91;;;9.85;100.00
11936;BME280;6027;48.576;9.180;2023-01-05T01:11:07;97327.44;;;9.88;100.00
11936;BME280;6027;48.576;9.180;2023-01-05T01:13:33;97317.53;;;9.90;100.00
11936;BME280;6027;48.576;9.180;2023-01-05T01:16:07;97317.84;;;9.87;100.00
11936;BME280;6027;48.576;9.180;2023-01-05T01:18:32;97311.59;;;9.88;100.00
11936;BME280;6027;48.576;9.180;2023-01-05T01:20:58;97313.06;;;9.90;100.00
11936;BME280;6027;48.576;9.180;2023-01-05T01:23:24;97314.56;;;9.85;100.00
11936;BME280;6027;48.576;9.180;2023-01-05T01:25:49;97323.47;;;9.84;100.00
11936;BME280;6027;48.576;9.180;2023-01-05T01:28:15;97319.69;;;9.86;100.00
11936;BME280;6027;48.576;9.180;2023-01-05T01:30:40;97326.94;;;9.84;100.00
11936;BME280;6027;48.576;9.180;2023-01-05T01:33:05;97309.09;;;9.86;100.00
11936;BME280;6027;48.576;9.180;2023-01-05T01:35:31;97321.81;;;9.83;100.00
11936;BME280;6027;48.576;9.180;2023-01-05T01:37:56;97314.56;;;9.77;100.00
11936;BME280;6027;48.576;9.180;2023-01-05T01:40:22;97324.81;;;9.80;100.00
11936;BME280;6027;48.576;9.180;2023-01-05T01:42:47;97330.59;;;9.75;100.00
11936;BME280;6027;48.576;9.180;2023-01-05T01:45:23;97313.09;;;9.74;100.00
11936;BME280;6027;48.576;9.180;2023-01-05T01:47:53;97312.59;;;9.79;100.00
11936;BME280;6027;48.576;9.180;2023-01-05T01:50:28;97303.50;;;9.81;100.00
11936;BME280;6027;48.576;9.180;2023-01-05T01:53:25;97310.09;;;9.85;100.00
11936;BME280;6027;48.576;9.180;2023-01-05T01:55:49;97306.63;;;9.85;100.00
11936;BME280;6027;48.576;9.180;2023-01-05T01:58:17;97300.00;;;9.89;100.00
11936;BME280;6027;48.576;9.180;2023-01-05T02:00:44;97297.69;;;9.86;100.00
11936;BME280;6027;48.576;9.180;2023-01-05T02:03:10;97288.94;;;9.85;100.00
11936;BME280;6027;48.576;9.180;2023-01-05T02:05:37;97281.16;;;9.84;100.00
11936;BME280;6027;48.576;9.180;2023-01-05T02:08:05;97267.44;;;9.88;100.00
11936;BME280;6027;48.576;9.180;2023-01-05T02:19:05;97262.31;;;9.87;100.00
11936;BME280;6027;48.576;9.180;2023-01-05T02:32:35;97275.22;;;9.90;100.00
11936;BME280;6027;48.576;9.180;2023-01-05T02:40:58;97271.25;;;9.94;100.00
11936;BME280;6027;48.576;9.180;2023-01-05T02:43:27;97274.88;;;9.93;100.00
11936;BME280;6027;48.576;9.180;2023-01-05T02:45:53;97264.97;;;9.95;100.00
11936;BME280;6027;48.576;9.180;2023-01-05T02:48:20;97265.63;;;9.97;100.00
11936;BME280;6027;48.576;9.180;2023-01-05T02:50:51;97261.50;;;9.94;100.00
11936;BME280;6027;48.576;9.180;2023-01-05T02:53:22;97267.59;;;9.95;100.00
11936;BME280;6027;48.576;9.180;2023-01-05T02:55:56;97266.44;;;9.97;100.00
11936;BME280;6027;48.576;9.180;2023-01-05T02:58:38;97254.72;;;9.92;100.00
11936;BME280;6027;48.576;9.180;2023-01-05T03:01:25;97258.00;;;10.02;100.00
11936;BME280;6027;48.576;9.180;2023-01-05T03:04:00;97265.63;;;9.97;100.00
11936;BME280;6027;48.576;9.180;2023-01-05T03:06:33;97265.75;;;10.03;100.00
11936;BME280;6027;48.576;9.180;2023-01-05T03:09:02;97246.94;;;9.98;100.00
11936;BME280;6027;48.576;9.180;2023-01-05T03:11:38;97256.34;;;10.01;100.00
11936;BME280;6027;48.576;9.180;2023-01-05T03:14:45;97260.81;;;10.00;100.00
11936;BME280;6027;48.576;9.180;2023-01-05T03:17:15;97267.75;;;10.01;100.00
11936;BME280;6027;48.576;9.180;2023-01-05T03:19:44;97268.22;;;10.05;100.00
11936;BME280;6027;48.576;9.180;2023-01-05T03:22:24;97273.53;;;10.05;100.00
11936;BME280;6027;48.576;9.180;2023-01-05T03:25:10;97269.06;;;10.05;100.00
11936;BME280;6027;48.576;9.180;2023-01-05T03:27:56;97274.19;;;10.07;100.00
11936;BME280;6027;48.576;9.180;2023-01-05T03:37:17;97270.88;;;10.05;100.00
11936;BME280;6027;48.576;9.180;2023-01-05T03:39:46;97269.88;;;10.14;100.00
11936;BME280;6027;48.576;9.180;2023-01-05T03:42:13;97268.56;;;10.10;100.00
11936;BME280;6027;48.576;9.180;2023-01-05T03:44:43;97270.38;;;10.10;100.00
11936;BME280;6027;48.576;9.180;2023-01-05T03:47:09;97270.22;;;10.11;100.00
11936;BME280;6027;48.576;9.180;2023-01-05T03:49:35;97266.56;;;10.12;100.00
11936;BME280;6027;48.576;9.180;2023-01-05T03:52:01;97278.63;;;10.15;100.00
11936;BME280;6027;48.576;9.180;2023-01-05T03:54:26;97272.88;;;10.19;100.00
11936;BME280;6027;48.576;9.180;2023-01-05T03:56:52;97263.25;;;10.18;100.00
11936;BME280;6027;48.576;9.180;2023-01-05T03:59:17;97257.63;;;10.21;100.00
11936;BME280;6027;48.576;9.180;2023-01-05T04:01:43;97264.75;;;10.21;100.00
11936;BME280;6027;48.576;9.180;2023-01-05T04:04:09;97260.78;;;10.25;100.00
11936;BME280;6027;48.576;9.180;2023-01-05T04:06:34;97249.38;;;10.16;100.00
11936;BME280;6027;48.576;9.180;2023-01-05T04:09:00;97258.13;;;10.17;100.00
11936;BME280;6027;48.576;9.180;2023-01-05T04:11:25;97268.56;;;10.18;100.00
11936;BME280;6027;48.576;9.180;2023-01-05T04:13:51;97264.75;;;10.21;100.00
11936;BME280;6027;48.576;9.180;2023-01-05T04:16:17;97254.00;;;10.22;100.00
11936;BME280;6027;48.576;9.180;2023-01-05T04:18:42;97257.13;;;10.18;100.00
11936;BME280;6027;48.576;9.180;2023-01-05T04:21:08;97252.66;;;10.18;100.00
11936;BME280;6027;48.576;9.180;2023-01-05T04:23:34;97251.72;;;10.19;100.00
11936;BME280;6027;48.576;9.180;2023-01-05T04:25:59;97254.16;;;10.21;100.00
11936;BME280;6027;48.576;9.180;2023-01-05T04:28:25;97261.28;;;10.20;100.00
11936;BME280;6027;48.576;9.180;2023-01-05T04:30:53;97260.09;;;10.23;100.00
11936;BME280;6027;48.576;9.180;2023-01-05T04:33:20;97256.31;;;10.25;100.00
11936;BME280;6027;48.576;9.180;2023-01-05T04:35:46;97268.38;;;10.28;100.00
11936;BME280;6027;48.576;9.180;2023-01-05T04:38:11;97255.66;;;10.23;100.00
11936;BME280;6027;48.576;9.180;2023-01-05T04:40:37;97254.97;;;10.21;100.00
11936;BME280;6027;48.576;9.180;2023-01-05T04:43:03;97258.47;;;10.22;100.00
11936;BME280;6027;48.576;9.180;2023-01-05T04:45:28;97251.50;;;10.21;100.00
11936;BME280;6027;48.576;9.180;2023-01-05T04:47:54;97255.97;;;10.20;100.00
11936;BME280;6027;48.576;9.180;2023-01-05T04:50:19;97261.28;;;10.20;100.00
11936;BME280;6027;48.576;9.180;2023-01-05T04:52:45;97261.47;;;10.19;100.00
11936;BME280;6027;48.576;9.180;2023-01-05T04:55:10;97254.16;;;10.21;100.00
11936;BME280;6027;48.576;9.180;2023-01-05T04:57:36;97254.97;;;10.21;100.00
11936;BME280;6027;48.576;9.180;2023-01-05T05:00:02;97251.34;;;10.22;100.00
11936;BME280;6027;48.576;9.180;2023-01-05T05:02:28;97252.34;;;10.21;100.00
11936;BME280;6027;48.576;9.180;2023-01-05T05:04:53;97250.53;;;10.22;100.00
11936;BME280;6027;48.576;9.180;2023-01-05T05:07:19;97257.28;;;10.24;100.00
11936;BME280;6027;48.576;9.180;2023-01-05T05:09:44;97257.28;;;10.24;100.00
11936;BME280;6027;48.576;9.180;2023-01-05T05:12:10;97262.59;;;10.24;100.00
11936;BME280;6027;48.576;9.180;2023-01-05T05:14:36;97264.25;;;10.25;100.00
11936;BME280;6027;48.576;9.180;2023-01-05T05:17:01;97261.28;;;10.20;100.00
11936;BME280;6027;48.576;9.180;2023-01-05T05:19:41;97267.72;;;10.18;100.00
11936;BME280;6027;48.576;9.180;2023-01-05T05:22:07;97268.56;;;10.18;100.00
11936;BME280;6027;48.576;9.180;2023-01-05T05:24:32;97267.72;;;10.18;100.00
11936;BME280;6027;48.576;9.180;2023-01-05T05:26:58;97264.13;;;10.19;100.00
11936;BME280;6027;48.576;9.180;2023-01-05T05:29:23;97268.56;;;10.18;100.00
11936;BME280;6027;48.576;9.180;2023-01-05T05:31:49;97282.13;;;10.15;100.00
11936;BME280;6027;48.576;9.180;2023-01-05T05:34:15;97284.94;;;10.14;100.00
11936;BME280;6027;48.576;9.180;2023-01-05T05:36:41;97287.56;;;10.14;100.00
11936;BME280;6027;48.576;9.180;2023-01-05T05:39:06;97295.50;;;10.05;100.00
11936;BME280;6027;48.576;9.180;2023-01-05T05:41:32;97290.38;;;10.04;100.00
11936;BME280;6027;48.576;9.180;2023-01-05T05:43:58;97296.66;;;10.03;100.00
11936;BME280;6027;48.576;9.180;2023-01-05T05:46:26;97300.97;;;10.04;100.00
11936;BME280;6027;48.576;9.180;2023-01-05T05:48:54;97302.31;;;10.00;100.00
11936;BME280;6027;48.576;9.180;2023-01-05T05:51:20;97301.31;;;10.01;100.00
11936;BME280;6027;48.576;9.180;2023-01-05T05:53:45;97313.22;;;10.05;100.00
11936;BME280;6027;48.576;9.180;2023-01-05T05:56:11;97311.88;;;10.09;100.00
11936;BME280;6027;48.576;9.180;2023-01-05T05:58:36;97313.03;;;10.07;100.00
11936;BME280;6027;48.576;9.180;2023-01-05T06:01:01;97316.69;;;10.05;100.00
11936;BME280;6027;48.576;9.180;2023-01-05T06:03:27;97322.13;;;10.12;100.00
11936;BME280;6027;48.576;9.180;2023-01-05T06:05:52;97319.31;;;10.05;100.00
11936;BME280;6027;48.576;9.180;2023-01-05T06:08:18;97326.44;;;10.05;100.00
11936;BME280;6027;48.576;9.180;2023-01-05T06:10:43;97331.72;;;10.05;100.00
11936;BME280;6027;48.576;9.180;2023-01-05T06:13:09;97343.28;;;10.04;100.00
11936;BME280;6027;48.576;9.180;2023-01-05T06:15:34;97347.09;;;10.01;100.00
11936;BME280;6027;48.576;9.180;2023-01-05T06:17:59;97336.38;;;9.95;100.00
11936;BME280;6027;48.576;9.180;2023-01-05T06:20:25;97347.28;;;9.92;100.00
11936;BME280;6027;48.576;9.180;2023-01-05T06:22:50;97345.63;;;9.83;100.00
11936;BME280;6027;48.576;9.180;2023-01-05T06:27:51;97353.75;;;9.81;100.00
11936;BME280;6027;48.576;9.180;2023-01-05T06:30:17;97362.34;;;9.75;100.00
11936;BME280;6027;48.576;9.180;2023-01-05T06:32:43;97360.34;;;9.69;100.00
11936;BME280;6027;48.576;9.180;2023-01-05T06:35:09;97363.31;;;9.66;100.00
11936;BME280;6027;48.576;9.180;2023-01-05T06:37:34;97367.47;;;9.60;100.00
11936;BME280;6027;48.576;9.180;2023-01-05T06:39:59;97374.88;;;9.65;100.00
11936;BME280;6027;48.576;9.180;2023-01-05T06:42:25;97375.72;;;9.57;100.00
11936;BME280;6027;48.576;9.180;2023-01-05T06:44:51;97372.91;;;9.59;100.00
11936;BME280;6027;48.576;9.180;2023-01-05T06:47:17;97374.56;;;9.60;100.00
11936;BME280;6027;48.576;9.180;2023-01-05T06:49:42;97372.72;;;9.52;100.00
11936;BME280;6027;48.576;9.180;2023-01-05T06:52:08;97378.84;;;9.53;100.00
11936;BME280;6027;48.576;9.180;2023-01-05T06:54:33;97383.78;;;9.40;100.00
11936;BME280;6027;48.576;9.180;2023-01-05T06:56:59;97389.53;;;9.43;100.00
11936;BME280;6027;48.576;9.180;2023-01-05T06:59:24;97387.91;;;9.50;100.00
11936;BME280;6027;48.576;9.180;2023-01-05T07:01:49;97393.84;;;9.44;100.00
11936;BME280;6027;48.576;9.180;2023-01-05T07:04:15;97396.84;;;9.49;100.00
11936;BME280;6027;48.576;9.180;2023-01-05T07:06:40;97398.13;;;9.45;100.00
11936;BME280;6027;48.576;9.180;2023-01-05T07:09:06;97410.22;;;9.48;100.00
11936;BME280;6027;48.576;9.180;2023-01-05T07:11:31;97400.13;;;9.43;100.00
11936;BME280;6027;48.576;9.180;2023-01-05T07:13:57;97406.41;;;9.42;100.00
11936;BME280;6027;48.576;9.180;2023-01-05T07:16:22;97395.81;;;9.34;100.00
11936;BME280;6027;48.576;9.180;2023-01-05T07:18:48;97408.72;;;9.37;100.00
11936;BME280;6027;48.576;9.180;2023-01-05T07:21:13;97408.41;;;9.40;100.00
11936;BME280;6027;48.576;9.180;2023-01-05T07:23:38;97419.59;;;9.34;100.00
11936;BME280;6027;48.576;9.180;2023-01-05T07:26:05;97428.50;;;9.33;100.00
11936;BME280;6027;48.576;9.180;2023-01-05T07:28:30;97437.28;;;9.33;100.00
11936;BME280;6027;48.576;9.180;2023-01-05T07:30:56;97434.97;;;9.39;100.00
11936;BME280;6027;48.576;9.180;2023-01-05T07:33:21;97442.41;;;9.43;100.00
11936;BME280;6027;48.576;9.180;2023-01-05T07:35:47;97437.97;;;9.52;100.00
11936;BME280;6027;48.576;9.180;2023-01-05T07:38:12;97438.47;;;9.47;100.00
11936;BME280;6027;48.576;9.180;2023-01-05T07:40:38;97431.50;;;9.46;100.00
11936;BME280;6027;48.576;9.180;2023-01-05T07:43:03;97434.16;;;9.38;100.00
11936;BME280;6027;48.576;9.180;2023-01-05T07:45:29;97448.53;;;9.44;100.00
11936;BME280;6027;48.576;9.180;2023-01-05T07:47:55;97443.41;;;9.42;100.00
11936;BME280;6027;48.576;9.180;2023-01-05T07:50:21;97450.34;;;9.43;100.00
11936;BME280;6027;48.576;9.180;2023-01-05T07:52:47;97454.16;;;9.41;100.00
11936;BME280;6027;48.576;9.180;2023-01-05T07:55:12;97458.59;;;9.40;100.00
11936;BME280;6027;48.576;9.180;2023-01-05T07:57:38;97456.13;;;9.39;100.00
11936;BME280;6027;48.576;9.180;2023-01-05T08:00:05;97456.13;;;9.39;100.00
11936;BME280;6027;48.576;9.180;2023-01-05T08:02:31;97454.94;;;9.33;100.00
11936;BME280;6027;48.576;9.180;2023-01-05T08:05:00;97457.59;;;9.33;100.00
11936;BME280;6027;48.576;9.180;2023-01-05T08:07:25;97452.28;;;9.33;100.00
11936;BME280;6027;48.576;9.180;2023-01-05T08:09:51;97468.50;;;9.38;100.00
11936;BME280;6027;48.576;9.180;2023-01-05T08:12:35;97460.25;;;9.41;100.00
11936;BME280;6027;48.576;9.180;2023-01-05T08:15:20;97481.88;;;9.37;100.00
11936;BME280;6027;48.576;9.180;2023-01-05T08:17:46;97482.19;;;9.33;100.00
11936;BME280;6027;48.576;9.180;2023-01-05T08:20:11;97476.44;;;9.46;100.00
11936;BME280;6027;48.576;9.180;2023-01-05T08:22:36;97478.91;;;9.40;100.00
11936;BME280;6027;48.576;9.180;2023-01-05T08:25:02;97492.00;;;9.49;100.00
11936;BME280;6027;48.576;9.180;2023-01-05T08:27:28;97497.59;;;9.46;100.00
11936;BME280;6027;48.576;9.180;2023-01-05T08:29:53;97506.66;;;9.44;100.00
11936;BME280;6027;48.576;9.180;2023-01-05T08:32:19;97514.94;;;9.49;100.00
11936;BME280;6027;48.576;9.180;2023-01-05T08:34:44;97507.38;;;9.54;100.00
11936;BME280;6027;48.576;9.180;2023-01-05T08:37:09;97512.66;;;9.54;100.00
11936;BME280;6027;48.576;9.180;2023-01-05T08:39:35;97504.03;;;9.44;100.00
11936;BME280;6027;48.576;9.180;2023-01-05T08:42:00;97499.09;;;9.49;100.00
11936;BME280;6027;48.576;9.180;2023-01-05T08:44:26;97501.22;;;9.45;100.00
11936;BME280;6027;48.576;9.180;2023-01-05T08:46:51;97499.91;;;9.49;100.00
11936;BME280;6027;48.576;9.180;2023-01-05T08:49:17;97510.97;;;9.45;100.00
11936;BME280;6027;48.576;9.180;2023-01-05T08:51:42;97507.50;;;9.44;100.00
11936;BME280;6027;48.576;9.180;2023-01-05T08:54:08;97516.25;;;9.45;100.00
11936;BME280;6027;48.576;9.180;2023-01-05T08:56:33;97516.09;;;9.46;100.00
11936;BME280;6027;48.576;9.180;2023-01-05T08:58:59;97512.47;;;9.47;100.00
11936;BME280;6027;48.576;9.180;2023-01-05T09:01:25;97507.19;;;9.47;100.00
11936;BME280;6027;48.576;9.180;2023-01-05T09:03:51;97516.44;;;9.51;100.00
11936;BME280;6027;48.576;9.180;2023-01-05T09:06:17;97513.81;;;9.51;100.00
11936;BME280;6027;48.576;9.180;2023-01-05T09:08:43;97518.72;;;9.46;100.00
11936;BME280;6027;48.576;9.180;2023-01-05T09:13:43;97519.88;;;9.44;100.00
11936;BME280;6027;48.576;9.180;2023-01-05T09:16:11;97528.00;;;9.50;100.00
11936;BME280;6027;48.576;9.180;2023-01-05T09:18:38;97522.72;;;9.50;100.00
11936;BME280;6027;48.576;9.180;2023-01-05T09:21:04;97527.66;;;9.45;100.00
11936;BME280;6027;48.576;9.180;2023-01-05T09:23:31;97540.25;;;9.51;100.00
11936;BME280;6027;48.576;9.180;2023-01-05T09:25:56;97538.75;;;9.49;100.00
11936;BME280;6027;48.576;9.180;2023-01-05T09:28:22;97540.41;;;9.50;100.00
11936;BME280;6027;48.576;9.180;2023-01-05T09:30:47;97544.19;;;9.47;100.00
11936;BME280;6027;48.576;9.180;2023-01-05T09:33:13;97554.66;;;9.57;100.00
11936;BME280;6027;48.576;9.180;2023-01-05T09:35:39;97549.66;;;9.54;100.00
11936;BME280;6027;48.576;9.180;2023-01-05T09:38:04;97563.19;;;9.51;100.00
11936;BME280;6027;48.576;9.180;2023-01-05T09:40:36;97557.59;;;9.54;100.00
11936;BME280;6027;48.576;9.180;2023-01-05T09:43:03;97573.00;;;9.58;100.00
11936;BME280;6027;48.576;9.180;2023-01-05T09:45:28;97573.00;;;9.66;100.00
11936;BME280;6027;48.576;9.180;2023-01-05T09:47:55;97569.75;;;9.73;100.00
11936;BME280;6027;48.576;9.180;2023-01-05T09:50:26;97566.47;;;9.79;100.00
11936;BME280;6027;48.576;9.180;2023-01-05T09:52:56;97559.00;;;9.74;100.00
11936;BME280;6027;48.576;9.180;2023-01-05T09:55:24;97565.78;;;9.77;100.00
11936;BME280;6027;48.576;9.180;2023-01-05T09:58:01;97557.56;;;9.88;100.00
11936;BME280;6027;48.576;9.180;2023-01-05T10:00:28;97559.00;;;9.82;100.00
11936;BME280;6027;48.576;9.180;2023-01-05T10:03:02;97564.53;;;9.97;100.00
11936;BME280;6027;48.576;9.180;2023-01-05T10:05:36;97565.84;;;9.93;100.00
11936;BME280;6027;48.576;9.180;2023-01-05T10:08:06;97567.31;;;9.87;100.00
11936;BME280;6027;48.576;9.180;2023-01-05T10:10:50;97559.38;;;9.87;100.00
11936;BME280;6027;48.576;9.180;2023-01-05T10:13:41;97556.91;;;10.02;100.00
11936;BME280;6027;48.576;9.180;2023-01-05T10:16:15;97553.13;;;10.04;100.00
11936;BME280;6027;48.576;9.180;2023-01-05T10:18:41;97545.34;;;10.03;100.00
11936;BME280;6027;48.576;9.180;2023-01-05T10:21:33;97552.63;;;10.01;100.00
11936;BME280;6027;48.576;9.180;2023-01-05T10:24:18;97550.81;;;10.10;100.00
11936;BME280;6027;48.576;9.180;2023-01-05T10:29:52;97551.81;;;10.09;100.00
11936;BME280;6027;48.576;9.180;2023-01-05T10:32:25;97549.34;;;10.15;100.00
11936;BME280;6027;48.576;9.180;2023-01-05T10:43:00;97556.31;;;10.16;100.00
11936;BME280;6027;48.576;9.180;2023-01-05T10:45:29;97557.97;;;10.17;100.00
11936;BME280;6027;48.576;9.180;2023-01-05T10:47:56;97556.31;;;10.16;100.00
11936;BME280;6027;48.576;9.180;2023-01-05T10:50:39;97556.16;;;10.18;100.00
11936;BME280;6027;48.576;9.180;2023-01-05T10:53:15;97546.56;;;10.25;100.00
11936;BME280;6027;48.576;9.180;2023-01-05T10:56:05;97549.38;;;10.23;100.00
11936;BME280;6027;48.576;9.180;2023-01-05T11:01:02;97557.00;;;10.26;100.00
11936;BME280;6027;48.576;9.180;2023-01-05T11:03:36;97562.13;;;10.28;100.00
11936;BME280;6027;48.576;9.180;2023-01-05T11:06:03;97562.13;;;10.28;100.00
11936;BME280;6027;48.576;9.180;2023-01-05T11:08:30;97551.38;;;10.29;100.00
11936;BME280;6027;48.576;9.180;2023-01-05T11:15:53;97542.81;;;10.35;100.00
11936;BME280;6027;48.576;9.180;2023-01-05T11:18:29;97549.91;;;10.35;100.00
11936;BME280;6027;48.576;9.180;2023-01-05T11:23:52;97542.47;;;10.38;100.00
11936;BME280;6027;48.576;9.180;2023-01-05T11:26:35;97540.47;;;10.41;100.00
11936;BME280;6027;48.576;9.180;2023-01-05T11:34:32;97557.00;;;10.43;100.00
11936;BME280;6027;48.576;9.180;2023-01-05T11:37:05;97558.66;;;10.44;100.00
11936;BME280;6027;48.576;9.180;2023-01-05T11:39:50;97563.81;;;10.45;100.00
11936;BME280;6027;48.576;9.180;2023-01-05T11:45:03;97567.28;;;10.46;100.00
11936;BME280;6027;48.576;9.180;2023-01-05T11:47:37;97563.66;;;10.47;100.00
11936;BME280;6027;48.576;9.180;2023-01-05T11:50:13;97557.03;;;10.51;100.00
11936;BME280;6027;48.576;9.180;2023-01-05T11:52:45;97551.25;;;10.39;100.00
11936;BME280;6027;48.576;9.180;2023-01-05T11:57:52;97554.72;;;10.48;100.00
11936;BME280;6027;48.576;9.180;2023-01-05T12:00:27;97556.03;;;10.52;100.00
11936;BME280;6027;48.576;9.180;2023-01-05T12:05:55;97546.25;;;10.44;100.00
11936;BME280;6027;48.576;9.180;2023-01-05T12:08:49;97543.97;;;10.49;100.00
11936;BME280;6027;48.576;9.180;2023-01-05T12:11:18;97550.09;;;10.50;100.00
11936;BME280;6027;48.576;9.180;2023-01-05T12:13:57;97554.19;;;10.44;100.00
11936;BME280;6027;48.576;9.180;2023-01-05T12:16:48;97550.56;;;10.45;100.00
11936;BME280;6027;48.576;9.180;2023-01-05T12:19:19;97552.22;;;10.46;100.00
11936;BME280;6027;48.576;9.180;2023-01-05T12:29:45;97549.06;;;10.43;100.00
11936;BME280;6027;48.576;9.180;2023-01-05T12:43:22;97566.63;;;10.44;100.00
11936;BME280;6027;48.576;9.180;2023-01-05T12:48:44;97574.41;;;10.37;100.00
11936;BME280;6027;48.576;9.180;2023-01-05T12:53:47;97577.53;;;10.49;100.00
11936;BME280;6027;48.576;9.180;2023-01-05T12:58:48;97574.72;;;10.42;100.00
11936;BME280;6027;48.576;9.180;2023-01-05T13:01:25;97579.19;;;10.50;100.00
11936;BME280;6027;48.576;9.180;2023-01-05T13:04:00;97573.56;;;10.45;100.00
11936;BME280;6027;48.576;9.180;2023-01-05T13:06:32;97570.91;;;10.45;100.00
11936;BME280;6027;48.576;9.180;2023-01-05T13:09:08;97576.22;;;10.45;100.00
11936;BME280;6027;48.576;9.180;2023-01-05T13:11:44;97569.09;;;10.45;100.00
11936;BME280;6027;48.576;9.180;2023-01-05T13:14:17;97572.56;;;10.46;100.00
11936;BME280;6027;48.576;9.180;2023-01-05T13:20:03;97578.03;;;10.44;100.00
11936;BME280;6027;48.576;9.180;2023-01-05T13:22:32;97580.84;;;10.43;100.00
11936;BME280;6027;48.576;9.180;2023-01-05T13:25:04;97579.53;;;10.47;100.00
11936;BME280;6027;48.576;9.180;2023-01-05T13:27:33;97573.91;;;10.50;100.00
11936;BME280;6027;48.576;9.180;2023-01-05T13:30:01;97568.78;;;10.48;100.00
11936;BME280;6027;48.576;9.180;2023-01-05T13:35:22;97569.09;;;10.45;100.00
11936;BME280;6027;48.576;9.180;2023-01-05T13:54:46;97579.53;;;10.55;100.00
11936;BME280;6027;48.576;9.180;2023-01-05T13:57:24;97579.53;;;10.55;100.00
11936;BME280;6027;48.576;9.180;2023-01-05T14:00:19;97573.59;;;10.53;100.00
11936;BME280;6027;48.576;9.180;2023-01-05T14:05:24;97572.75;;;10.52;100.00
11936;BME280;6027;48.576;9.180;2023-01-05T14:07:55;97568.97;;;10.55;100.00
11936;BME280;6027;48.576;9.180;2023-01-05T14:10:22;97572.75;;;10.52;100.00
11936;BME280;6027;48.576;9.180;2023-01-05T14:12:49;97581.19;;;10.56;100.00
11936;BME280;6027;48.576;9.180;2023-01-05T14:15:38;97579.22;;;10.58;100.00
11936;BME280;6027;48.576;9.180;2023-01-05T14:18:09;97578.41;;;10.57;100.00
11936;BME280;6027;48.576;9.180;2023-01-05T14:20:46;97585.31;;;10.58;100.00
11936;BME280;6027;48.576;9.180;2023-01-05T14:30:47;97599.75;;;10.56;100.00
11936;BME280;6027;48.576;9.180;2023-01-05T14:33:16;97600.06;;;10.61;100.00
11936;BME280;6027;48.576;9.180;2023-01-05T14:35:42;97604.19;;;10.63;100.00
11936;BME280;6027;48.576;9.180;2023-01-05T14:38:22;97606.84;;;10.63;100.00
11936;BME280;6027;48.576;9.180;2023-01-05T14:40:50;97610.47;;;10.62;100.00
11936;BME280;6027;48.576;9.180;2023-01-05T14:46:12;97606.03;;;10.55;100.00
11936;BME280;6027;48.576;9.180;2023-01-05T14:49:02;97603.00;;;10.42;100.00
11936;BME280;6027;48.576;9.180;2023-01-05T14:51:33;97604.53;;;10.52;100.00
11936;BME280;6027;48.576;9.180;2023-01-05T14:54:04;97610.97;;;10.50;100.00
11936;BME280;6027;48.576;9.180;2023-01-05T14:56:32;97604.66;;;10.43;100.00
11936;BME280;6027;48.576;9.180;2023-01-05T14:59:04;97610.31;;;10.48;100.00
11936;BME280;6027;48.576;9.180;2023-01-05T15:01:47;97607.16;;;10.36;100.00
11936;BME280;6027;48.576;9.180;2023-01-05T15:04:31;97610.28;;;10.39;100.00
11936;BME280;6027;48.576;9.180;2023-01-05T15:07:27;97618.88;;;10.42;100.00
11936;BME280;6027;48.576;9.180;2023-01-05T15:23:36;97625.66;;;10.20;100.00
11936;BME280;6027;48.576;9.180;2023-01-05T15:37:16;97621.88;;;10.30;100.00
11936;BME280;6027;48.576;9.180;2023-01-05T15:39:47;97623.31;;;10.25;100.00
11936;BME280;6027;48.576;9.180;2023-01-05T15:42:17;97618.16;;;10.15;100.00
11936;BME280;6027;48.576;9.180;2023-01-05T15:44:46;97621.78;;;10.14;100.00
11936;BME280;6027;48.576;9.180;2023-01-05T15:47:12;97613.50;;;10.09;100.00
11936;BME280;6027;48.576;9.180;2023-01-05T15:49:39;97614.16;;;10.11;100.00
11936;BME280;6027;48.576;9.180;2023-01-05T15:52:05;97616.63;;;10.04;100.00
11936;BME280;6027;48.576;9.180;2023-01-05T15:54:41;97623.78;;;10.12;100.00
11936;BME280;6027;48.576;9.180;2023-01-05T15:57:18;97616.63;;;10.04;100.00